sensor_id;sensor_type;location;lat;lon;timestamp;P1;durP1;ratioP1;P2;durP2;ratioP2
7707;SDS011;3896;48.758;8.888;2023-04-25T00:01:21;1.63;;;1.20;;
7707;SDS011;3896;48.758;8.888;2023-04-25T00:03:47;1.70;;;1.60;;
7707;SDS011;3896;48.758;8.888;2023-04-25T00:06:13;1.50;;;1.40;;
7707;SDS011;3896;48.758;8.888;2023-04-25T00:08:39;1.60;;;1.50;;
7707;SDS011;3896;48.758;8.888;2023-04-25T00:11:05;1.90;;;1.80;;
7707;SDS011;3896;48.758;8.888;2023-04-25T00:13:31;2.67;;;1.60;;
7707;SDS011;3896;48.758;8.888;2023-04-25T00:15:56;2.10;;;1.90;;
7707;SDS011;3896;48.758;8.888;2023-04-25T00:18:23;2.37;;;1.90;;
7707;SDS011;3896;48.758;8.888;2023-04-25T00:20:49;1.70;;;1.60;;
7707;SDS011;3896;48.758;8.888;2023-04-25T00:23:15;1.93;;;1.83;;
7707;SDS011;3896;48.758;8.888;2023-04-25T00:25:43;3.00;;;1.80;;
7707;SDS011;3896;48.758;8.888;2023-04-25T00:28:10;2.60;;;1.80;;
7707;SDS011;3896;48.758;8.888;2023-04-25T00:30:36;1.93;;;1.80;;
7707;SDS011;3896;48.758;8.888;2023-04-25T00:33:03;1.67;;;1.57;;
7707;SDS011;3896;48.758;8.888;2023-04-25T00:35:28;2.20;;;2.10;;
7707;SDS011;3896;48.758;8.888;2023-04-25T00:37:54;2.30;;;1.67;;
7707;SDS011;3896;48.758;8.888;2023-04-25T00:40:20;3.00;;;1.97;;
7707;SDS011;3896;48.758;8.888;2023-04-25T00:42:45;2.17;;;1.97;;
7707;SDS011;3896;48.758;8.888;2023-04-25T00:45:12;3.60;;;2.20;;
7707;SDS011;3896;48.758;8.888;2023-04-25T00:47:39;1.63;;;1.50;;
7707;SDS011;3896;48.758;8.888;2023-04-25T00:50:05;2.57;;;2.00;;
7707;SDS011;3896;48.758;8.888;2023-04-25T00:52:31;2.20;;;2.10;;
7707;SDS011;3896;48.758;8.888;2023-04-25T00:54:57;3.43;;;2.23;;
7707;SDS011;3896;48.758;8.888;2023-04-25T00:57:23;3.43;;;1.83;;
7707;SDS011;3896;48.758;8.888;2023-04-25T00:59:50;2.70;;;1.70;;
7707;SDS011;3896;48.758;8.888;2023-04-25T01:02:17;1.90;;;1.80;;
7707;SDS011;3896;48.758;8.888;2023-04-25T01:04:43;2.93;;;2.03;;
7707;SDS011;3896;48.758;8.888;2023-04-25T01:07:09;2.47;;;1.77;;
7707;SDS011;3896;48.758;8.888;2023-04-25T01:09:35;2.87;;;2.07;;
7707;SDS011;3896;48.758;8.888;2023-04-25T01:12:01;2.17;;;1.97;;
7707;SDS011;3896;48.758;8.888;2023-04-25T01:14:27;3.17;;;1.73;;
7707;SDS011;3896;48.758;8.888;2023-04-25T01:16:54;3.97;;;2.00;;
7707;SDS011;3896;48.758;8.888;2023-04-25T01:19:19;2.13;;;1.80;;
7707;SDS011;3896;48.758;8.888;2023-04-25T01:21:45;3.73;;;2.10;;
7707;SDS011;3896;48.758;8.888;2023-04-25T01:24:12;2.30;;;2.10;;
7707;SDS011;3896;48.758;8.888;2023-04-25T01:26:38;3.50;;;1.87;;
7707;SDS011;3896;48.758;8.888;2023-04-25T01:29:05;2.73;;;2.30;;
7707;SDS011;3896;48.758;8.888;2023-04-25T01:31:33;2.43;;;2.13;;
7707;SDS011;3896;48.758;8.888;2023-04-25T01:33:59;5.03;;;2.20;;
7707;SDS011;3896;48.758;8.888;2023-04-25T01:36:25;4.13;;;2.40;;
7707;SDS011;3896;48.758;8.888;2023-04-25T01:38:52;4.03;;;2.40;;
7707;SDS011;3896;48.758;8.888;2023-04-25T01:41:18;2.33;;;1.97;;
7707;SDS011;3896;48.758;8.888;2023-04-25T01:43:44;2.03;;;1.87;;
7707;SDS011;3896;48.758;8.888;2023-04-25T01:46:10;2.30;;;1.83;;
7707;SDS011;3896;48.758;8.888;2023-04-25T01:48:37;1.90;;;1.80;;
7707;SDS011;3896;48.758;8.888;2023-04-25T01:51:02;3.13;;;2.07;;
7707;SDS011;3896;48.758;8.888;2023-04-25T01:53:28;2.53;;;2.07;;
7707;SDS011;3896;48.758;8.888;2023-04-25T01:55:54;2.10;;;2.00;;
7707;SDS011;3896;48.758;8.888;2023-04-25T01:58:20;4.60;;;2.10;;
7707;SDS011;3896;48.758;8.888;2023-04-25T02:00:46;3.13;;;2.27;;
7707;SDS011;3896;48.758;8.888;2023-04-25T02:03:11;2.67;;;1.87;;
7707;SDS011;3896;48.758;8.888;2023-04-25T02:05:37;2.10;;;2.00;;
7707;SDS011;3896;48.758;8.888;2023-04-25T02:08:04;2.80;;;1.83;;
7707;SDS011;3896;48.758;8.888;2023-04-25T02:10:32;3.70;;;2.40;;
7707;SDS011;3896;48.758;8.888;2023-04-25T02:12:58;2.83;;;2.27;;
7707;SDS011;3896;48.758;8.888;2023-04-25T02:15:23;3.33;;;2.00;;
7707;SDS011;3896;48.758;8.888;2023-04-25T02:17:49;3.53;;;2.10;;
7707;SDS011;3896;48.758;8.888;2023-04-25T02:20:15;2.60;;;2.40;;
7707;SDS011;3896;48.758;8.888;2023-04-25T02:22:45;2.07;;;1.97;;
7707;SDS011;3896;48.758;8.888;2023-04-25T02:25:11;2.70;;;2.50;;
7707;SDS011;3896;48.758;8.888;2023-04-25T02:27:36;3.03;;;2.40;;
7707;SDS011;3896;48.758;8.888;2023-04-25T02:30:03;3.27;;;2.40;;
7707;SDS011;3896;48.758;8.888;2023-04-25T02:32:29;3.73;;;2.00;;
7707;SDS011;3896;48.758;8.888;2023-04-25T02:34:55;4.33;;;2.37;;
7707;SDS011;3896;48.758;8.888;2023-04-25T02:37:23;3.57;;;2.40;;
7707;SDS011;3896;48.758;8.888;2023-04-25T02:39:49;2.00;;;1.90;;
7707;SDS011;3896;48.758;8.888;2023-04-25T02:42:14;1.97;;;1.87;;
7707;SDS011;3896;48.758;8.888;2023-04-25T02:44:40;2.40;;;2.03;;
7707;SDS011;3896;48.758;8.888;2023-04-25T02:47:06;4.43;;;2.00;;
7707;SDS011;3896;48.758;8.888;2023-04-25T02:49:31;3.07;;;2.00;;
7707;SDS011;3896;48.758;8.888;2023-04-25T02:51:57;2.63;;;2.43;;
7707;SDS011;3896;48.758;8.888;2023-04-25T02:54:22;2.90;;;2.30;;
7707;SDS011;3896;48.758;8.888;2023-04-25T02:56:48;4.00;;;1.97;;
7707;SDS011;3896;48.758;8.888;2023-04-25T02:59:13;2.20;;;2.00;;
7707;SDS011;3896;48.758;8.888;2023-04-25T03:01:39;2.23;;;2.03;;
7707;SDS011;3896;48.758;8.888;2023-04-25T03:04:04;4.80;;;2.13;;
7707;SDS011;3896;48.758;8.888;2023-04-25T03:06:30;5.17;;;2.40;;
7707;SDS011;3896;48.758;8.888;2023-04-25T03:08:56;2.40;;;2.20;;
7707;SDS011;3896;48.758;8.888;2023-04-25T03:11:21;2.63;;;2.30;;
7707;SDS011;3896;48.758;8.888;2023-04-25T03:13:47;3.83;;;2.60;;
7707;SDS011;3896;48.758;8.888;2023-04-25T03:16:12;3.23;;;2.50;;
7707;SDS011;3896;48.758;8.888;2023-04-25T03:18:38;2.97;;;1.90;;
7707;SDS011;3896;48.758;8.888;2023-04-25T03:21:03;2.60;;;2.40;;
7707;SDS011;3896;48.758;8.888;2023-04-25T03:23:29;2.60;;;2.00;;
7707;SDS011;3896;48.758;8.888;2023-04-25T03:25:55;3.20;;;2.80;;
7707;SDS011;3896;48.758;8.888;2023-04-25T03:28:21;3.33;;;2.20;;
7707;SDS011;3896;48.758;8.888;2023-04-25T03:30:46;4.13;;;2.47;;
7707;SDS011;3896;48.758;8.888;2023-04-25T03:33:12;3.17;;;2.40;;
7707;SDS011;3896;48.758;8.888;2023-04-25T03:35:38;3.17;;;2.50;;
7707;SDS011;3896;48.758;8.888;2023-04-25T03:38:03;2.30;;;2.17;;
7707;SDS011;3896;48.758;8.888;2023-04-25T03:40:29;3.00;;;2.20;;
7707;SDS011;3896;48.758;8.888;2023-04-25T03:42:54;3.67;;;2.30;;
7707;SDS011;3896;48.758;8.888;2023-04-25T03:45:20;3.80;;;2.30;;
7707;SDS011;3896;48.758;8.888;2023-04-25T03:47:45;2.97;;;2.60;;
7707;SDS011;3896;48.758;8.888;2023-04-25T03:50:11;2.60;;;2.40;;
7707;SDS011;3896;48.758;8.888;2023-04-25T03:52:36;2.90;;;2.17;;
7707;SDS011;3896;48.758;8.888;2023-04-25T03:55:02;4.90;;;2.40;;
7707;SDS011;3896;48.758;8.888;2023-04-25T03:57:29;2.13;;;2.00;;
7707;SDS011;3896;48.758;8.888;2023-04-25T03:59:55;2.20;;;2.00;;
7707;SDS011;3896;48.758;8.888;2023-04-25T04:02:20;2.43;;;2.10;;
7707;SDS011;3896;48.758;8.888;2023-04-25T04:04:47;4.07;;;2.20;;
7707;SDS011;3896;48.758;8.888;2023-04-25T04:07:13;3.10;;;1.90;;
7707;SDS011;3896;48.758;8.888;2023-04-25T04:09:38;3.00;;;1.87;;
7707;SDS011;3896;48.758;8.888;2023-04-25T04:12:04;2.37;;;2.10;;
7707;SDS011;3896;48.758;8.888;2023-04-25T04:14:30;3.50;;;2.17;;
7707;SDS011;3896;48.758;8.888;2023-04-25T04:16:55;3.37;;;1.83;;
7707;SDS011;3896;48.758;8.888;2023-04-25T04:19:21;2.33;;;2.13;;
7707;SDS011;3896;48.758;8.888;2023-04-25T04:21:46;2.07;;;1.87;;
7707;SDS011;3896;48.758;8.888;2023-04-25T04:24:12;5.87;;;2.30;;
7707;SDS011;3896;48.758;8.888;2023-04-25T04:26:37;2.47;;;1.80;;
7707;SDS011;3896;48.758;8.888;2023-04-25T04:29:03;2.50;;;1.80;;
7707;SDS011;3896;48.758;8.888;2023-04-25T04:31:29;2.43;;;2.23;;
7707;SDS011;3896;48.758;8.888;2023-04-25T04:33:55;4.07;;;2.20;;
7707;SDS011;3896;48.758;8.888;2023-04-25T04:36:20;2.00;;;1.90;;
7707;SDS011;3896;48.758;8.888;2023-04-25T04:38:47;2.83;;;1.90;;
7707;SDS011;3896;48.758;8.888;2023-04-25T04:41:13;2.40;;;2.20;;
7707;SDS011;3896;48.758;8.888;2023-04-25T04:43:39;2.47;;;2.13;;
7707;SDS011;3896;48.758;8.888;2023-04-25T04:46:06;2.87;;;2.30;;
7707;SDS011;3896;48.758;8.888;2023-04-25T04:48:32;2.97;;;2.67;;
7707;SDS011;3896;48.758;8.888;2023-04-25T04:50:59;2.57;;;2.37;;
7707;SDS011;3896;48.758;8.888;2023-04-25T04:53:25;2.90;;;2.57;;
7707;SDS011;3896;48.758;8.888;2023-04-25T04:55:50;2.80;;;2.50;;
7707;SDS011;3896;48.758;8.888;2023-04-25T04:58:16;3.00;;;2.67;;
7707;SDS011;3896;48.758;8.888;2023-04-25T05:00:41;3.73;;;2.60;;
7707;SDS011;3896;48.758;8.888;2023-04-25T05:03:07;2.43;;;2.30;;
7707;SDS011;3896;48.758;8.888;2023-04-25T05:05:33;2.87;;;2.47;;
7707;SDS011;3896;48.758;8.888;2023-04-25T05:07:58;3.90;;;3.20;;
7707;SDS011;3896;48.758;8.888;2023-04-25T05:10:24;3.97;;;2.77;;
7707;SDS011;3896;48.758;8.888;2023-04-25T05:12:50;4.87;;;2.47;;
7707;SDS011;3896;48.758;8.888;2023-04-25T05:15:16;8.33;;;4.00;;
7707;SDS011;3896;48.758;8.888;2023-04-25T05:17:41;4.90;;;3.37;;
7707;SDS011;3896;48.758;8.888;2023-04-25T05:20:07;3.87;;;2.80;;
7707;SDS011;3896;48.758;8.888;2023-04-25T05:22:34;3.97;;;2.63;;
7707;SDS011;3896;48.758;8.888;2023-04-25T05:25:00;2.97;;;2.47;;
7707;SDS011;3896;48.758;8.888;2023-04-25T05:27:26;4.90;;;3.27;;
7707;SDS011;3896;48.758;8.888;2023-04-25T05:29:51;3.73;;;3.43;;
7707;SDS011;3896;48.758;8.888;2023-04-25T05:32:17;6.90;;;3.73;;
7707;SDS011;3896;48.758;8.888;2023-04-25T05:34:43;4.27;;;3.10;;
7707;SDS011;3896;48.758;8.888;2023-04-25T05:37:08;3.93;;;3.00;;
7707;SDS011;3896;48.758;8.888;2023-04-25T05:39:34;3.63;;;3.33;;
7707;SDS011;3896;48.758;8.888;2023-04-25T05:41:59;3.83;;;2.87;;
7707;SDS011;3896;48.758;8.888;2023-04-25T05:44:27;3.73;;;2.90;;
7707;SDS011;3896;48.758;8.888;2023-04-25T05:46:53;4.27;;;3.20;;
7707;SDS011;3896;48.758;8.888;2023-04-25T05:49:19;2.70;;;2.50;;
7707;SDS011;3896;48.758;8.888;2023-04-25T05:51:44;4.07;;;3.10;;
7707;SDS011;3896;48.758;8.888;2023-04-25T05:54:10;4.27;;;3.10;;
7707;SDS011;3896;48.758;8.888;2023-04-25T05:56:35;4.07;;;3.50;;
7707;SDS011;3896;48.758;8.888;2023-04-25T05:59:01;2.80;;;2.60;;
7707;SDS011;3896;48.758;8.888;2023-04-25T06:01:26;3.50;;;3.20;;
7707;SDS011;3896;48.758;8.888;2023-04-25T06:03:52;3.40;;;3.10;;
7707;SDS011;3896;48.758;8.888;2023-04-25T06:06:18;3.80;;;3.47;;
7707;SDS011;3896;48.758;8.888;2023-04-25T06:08:43;3.70;;;3.40;;
7707;SDS011;3896;48.758;8.888;2023-04-25T06:11:09;2.93;;;2.73;;
7707;SDS011;3896;48.758;8.888;2023-04-25T06:13:35;4.27;;;3.80;;
7707;SDS011;3896;48.758;8.888;2023-04-25T06:16:01;3.80;;;3.33;;
7707;SDS011;3896;48.758;8.888;2023-04-25T06:18:26;3.60;;;3.27;;
7707;SDS011;3896;48.758;8.888;2023-04-25T06:20:52;3.60;;;3.30;;
7707;SDS011;3896;48.758;8.888;2023-04-25T06:23:17;3.88;;;3.58;;
7707;SDS011;3896;48.758;8.888;2023-04-25T06:25:43;4.03;;;3.57;;
7707;SDS011;3896;48.758;8.888;2023-04-25T06:28:08;4.70;;;3.93;;
7707;SDS011;3896;48.758;8.888;2023-04-25T06:30:34;5.33;;;3.80;;
7707;SDS011;3896;48.758;8.888;2023-04-25T06:33:00;4.93;;;3.40;;
7707;SDS011;3896;48.758;8.888;2023-04-25T06:35:25;4.30;;;3.63;;
7707;SDS011;3896;48.758;8.888;2023-04-25T06:37:51;4.13;;;3.73;;
7707;SDS011;3896;48.758;8.888;2023-04-25T06:40:16;5.00;;;3.40;;
7707;SDS011;3896;48.758;8.888;2023-04-25T06:42:42;4.37;;;3.00;;
7707;SDS011;3896;48.758;8.888;2023-04-25T06:45:08;4.23;;;3.03;;
7707;SDS011;3896;48.758;8.888;2023-04-25T06:47:34;3.03;;;2.80;;
7707;SDS011;3896;48.758;8.888;2023-04-25T06:49:59;8.07;;;3.23;;
7707;SDS011;3896;48.758;8.888;2023-04-25T06:52:25;3.10;;;2.80;;
7707;SDS011;3896;48.758;8.888;2023-04-25T06:54:50;2.77;;;2.57;;
7707;SDS011;3896;48.758;8.888;2023-04-25T06:57:16;3.13;;;2.83;;
7707;SDS011;3896;48.758;8.888;2023-04-25T06:59:41;3.33;;;3.03;;
7707;SDS011;3896;48.758;8.888;2023-04-25T07:02:07;5.83;;;3.10;;
7707;SDS011;3896;48.758;8.888;2023-04-25T07:04:32;4.20;;;3.30;;
7707;SDS011;3896;48.758;8.888;2023-04-25T07:06:58;5.37;;;2.90;;
7707;SDS011;3896;48.758;8.888;2023-04-25T07:09:25;8.10;;;3.20;;
7707;SDS011;3896;48.758;8.888;2023-04-25T07:11:51;3.87;;;3.50;;
7707;SDS011;3896;48.758;8.888;2023-04-25T07:14:16;3.63;;;3.03;;
7707;SDS011;3896;48.758;8.888;2023-04-25T07:16:42;3.17;;;2.93;;
7707;SDS011;3896;48.758;8.888;2023-04-25T07:19:08;4.60;;;3.60;;
7707;SDS011;3896;48.758;8.888;2023-04-25T07:21:33;3.70;;;3.40;;
7707;SDS011;3896;48.758;8.888;2023-04-25T07:23:59;2.47;;;2.23;;
7707;SDS011;3896;48.758;8.888;2023-04-25T07:26:24;4.50;;;3.70;;
7707;SDS011;3896;48.758;8.888;2023-04-25T07:28:50;4.60;;;3.50;;
7707;SDS011;3896;48.758;8.888;2023-04-25T07:31:16;4.73;;;4.30;;
7707;SDS011;3896;48.758;8.888;2023-04-25T07:33:43;4.63;;;4.13;;
7707;SDS011;3896;48.758;8.888;2023-04-25T07:36:10;4.07;;;3.77;;
7707;SDS011;3896;48.758;8.888;2023-04-25T07:38:38;4.13;;;2.93;;
7707;SDS011;3896;48.758;8.888;2023-04-25T07:41:04;4.13;;;3.73;;
7707;SDS011;3896;48.758;8.888;2023-04-25T07:43:30;6.43;;;3.87;;
7707;SDS011;3896;48.758;8.888;2023-04-25T07:45:56;4.93;;;3.80;;
7707;SDS011;3896;48.758;8.888;2023-04-25T07:48:22;4.90;;;3.53;;
7707;SDS011;3896;48.758;8.888;2023-04-25T07:50:47;3.27;;;2.87;;
7707;SDS011;3896;48.758;8.888;2023-04-25T07:53:13;5.33;;;3.57;;
7707;SDS011;3896;48.758;8.888;2023-04-25T07:55:39;6.20;;;3.40;;
7707;SDS011;3896;48.758;8.888;2023-04-25T07:58:08;4.53;;;3.90;;
7707;SDS011;3896;48.758;8.888;2023-04-25T08:00:34;3.20;;;2.97;;
7707;SDS011;3896;48.758;8.888;2023-04-25T08:03:01;8.67;;;5.60;;
7707;SDS011;3896;48.758;8.888;2023-04-25T08:05:29;6.53;;;4.03;;
7707;SDS011;3896;48.758;8.888;2023-04-25T08:07:54;7.67;;;4.13;;
7707;SDS011;3896;48.758;8.888;2023-04-25T08:10:21;6.23;;;4.50;;
7707;SDS011;3896;48.758;8.888;2023-04-25T08:12:48;6.27;;;4.47;;
7707;SDS011;3896;48.758;8.888;2023-04-25T08:15:14;6.37;;;4.40;;
7707;SDS011;3896;48.758;8.888;2023-04-25T08:20:12;3.77;;;3.47;;
7707;SDS011;3896;48.758;8.888;2023-04-25T08:22:38;3.43;;;3.13;;
7707;SDS011;3896;48.758;8.888;2023-04-25T08:25:04;3.87;;;3.50;;
7707;SDS011;3896;48.758;8.888;2023-04-25T08:27:29;4.07;;;3.67;;
7707;SDS011;3896;48.758;8.888;2023-04-25T08:29:55;3.80;;;3.40;;
7707;SDS011;3896;48.758;8.888;2023-04-25T08:32:21;4.27;;;3.87;;
7707;SDS011;3896;48.758;8.888;2023-04-25T08:34:46;3.17;;;2.97;;
7707;SDS011;3896;48.758;8.888;2023-04-25T08:37:12;3.50;;;3.13;;
7707;SDS011;3896;48.758;8.888;2023-04-25T08:39:38;5.63;;;3.73;;
7707;SDS011;3896;48.758;8.888;2023-04-25T08:42:07;3.90;;;3.13;;
7707;SDS011;3896;48.758;8.888;2023-04-25T08:44:36;3.77;;;3.27;;
7707;SDS011;3896;48.758;8.888;2023-04-25T08:47:05;4.27;;;3.13;;
7707;SDS011;3896;48.758;8.888;2023-04-25T08:49:34;5.43;;;3.10;;
7707;SDS011;3896;48.758;8.888;2023-04-25T08:52:01;3.30;;;3.00;;
7707;SDS011;3896;48.758;8.888;2023-04-25T08:54:27;4.00;;;2.63;;
7707;SDS011;3896;48.758;8.888;2023-04-25T08:56:55;2.80;;;2.30;;
7707;SDS011;3896;48.758;8.888;2023-04-25T08:59:23;2.70;;;2.50;;
7707;SDS011;3896;48.758;8.888;2023-04-25T09:01:49;2.43;;;2.23;;
7707;SDS011;3896;48.758;8.888;2023-04-25T09:04:16;2.20;;;2.10;;
7707;SDS011;3896;48.758;8.888;2023-04-25T09:06:43;3.20;;;2.40;;
7707;SDS011;3896;48.758;8.888;2023-04-25T09:09:08;2.20;;;2.00;;
7707;SDS011;3896;48.758;8.888;2023-04-25T09:11:37;2.07;;;1.13;;
7707;SDS011;3896;48.758;8.888;2023-04-25T09:14:16;1.20;;;1.07;;
7707;SDS011;3896;48.758;8.888;2023-04-25T09:19:27;0.80;;;0.80;;
7707;SDS011;3896;48.758;8.888;2023-04-25T09:21:55;1.63;;;0.60;;
7707;SDS011;3896;48.758;8.888;2023-04-25T09:24:44;0.70;;;0.70;;
7707;SDS011;3896;48.758;8.888;2023-04-25T09:27:10;0.80;;;0.70;;
7707;SDS011;3896;48.758;8.888;2023-04-25T09:29:40;0.90;;;0.90;;
7707;SDS011;3896;48.758;8.888;2023-04-25T09:32:15;0.77;;;0.77;;
7707;SDS011;3896;48.758;8.888;2023-04-25T09:34:41;0.90;;;0.90;;
7707;SDS011;3896;48.758;8.888;2023-04-25T09:37:11;0.90;;;0.90;;
7707;SDS011;3896;48.758;8.888;2023-04-25T09:39:37;0.80;;;0.77;;
7707;SDS011;3896;48.758;8.888;2023-04-25T09:42:03;1.47;;;1.00;;
7707;SDS011;3896;48.758;8.888;2023-04-25T09:44:30;2.47;;;0.97;;
7707;SDS011;3896;48.758;8.888;2023-04-25T09:46:55;0.60;;;0.60;;
7707;SDS011;3896;48.758;8.888;2023-04-25T09:49:22;0.90;;;0.90;;
7707;SDS011;3896;48.758;8.888;2023-04-25T09:51:54;0.80;;;0.80;;
7707;SDS011;3896;48.758;8.888;2023-04-25T09:54:21;1.20;;;1.07;;
7707;SDS011;3896;48.758;8.888;2023-04-25T09:56:46;1.07;;;0.67;;
7707;SDS011;3896;48.758;8.888;2023-04-25T09:59:16;0.60;;;0.60;;
7707;SDS011;3896;48.758;8.888;2023-04-25T10:01:43;1.00;;;1.00;;
7707;SDS011;3896;48.758;8.888;2023-04-25T10:04:10;1.97;;;0.60;;
7707;SDS011;3896;48.758;8.888;2023-04-25T10:06:36;0.90;;;0.90;;
7707;SDS011;3896;48.758;8.888;2023-04-25T10:09:03;0.67;;;0.60;;
7707;SDS011;3896;48.758;8.888;2023-04-25T10:11:32;0.60;;;0.60;;
7707;SDS011;3896;48.758;8.888;2023-04-25T10:13:59;0.50;;;0.50;;
7707;SDS011;3896;48.758;8.888;2023-04-25T10:16:25;0.70;;;0.70;;
7707;SDS011;3896;48.758;8.888;2023-04-25T10:18:52;0.70;;;0.70;;
7707;SDS011;3896;48.758;8.888;2023-04-25T10:21:18;0.80;;;0.70;;
7707;SDS011;3896;48.758;8.888;2023-04-25T10:23:46;1.07;;;0.90;;
7707;SDS011;3896;48.758;8.888;2023-04-25T10:26:13;0.90;;;0.80;;
7707;SDS011;3896;48.758;8.888;2023-04-25T10:28:58;0.60;;;0.60;;
7707;SDS011;3896;48.758;8.888;2023-04-25T10:31:26;0.67;;;0.67;;
7707;SDS011;3896;48.758;8.888;2023-04-25T10:33:51;1.03;;;1.03;;
7707;SDS011;3896;48.758;8.888;2023-04-25T10:36:18;0.60;;;0.60;;
7707;SDS011;3896;48.758;8.888;2023-04-25T10:38:48;1.77;;;1.50;;
7707;SDS011;3896;48.758;8.888;2023-04-25T10:41:18;0.93;;;0.60;;
7707;SDS011;3896;48.758;8.888;2023-04-25T10:43:46;0.70;;;0.60;;
7707;SDS011;3896;48.758;8.888;2023-04-25T10:46:13;1.43;;;0.97;;
7707;SDS011;3896;48.758;8.888;2023-04-25T10:48:45;2.20;;;0.80;;
7707;SDS011;3896;48.758;8.888;2023-04-25T10:51:31;2.43;;;2.20;;
7707;SDS011;3896;48.758;8.888;2023-04-25T10:53:58;0.63;;;0.63;;
7707;SDS011;3896;48.758;8.888;2023-04-25T10:56:29;2.50;;;1.63;;
7707;SDS011;3896;48.758;8.888;2023-04-25T10:59:10;0.93;;;0.93;;
7707;SDS011;3896;48.758;8.888;2023-04-25T11:01:36;1.00;;;1.00;;
7707;SDS011;3896;48.758;8.888;2023-04-25T11:04:04;1.97;;;1.80;;
7707;SDS011;3896;48.758;8.888;2023-04-25T11:09:14;2.07;;;1.67;;
7707;SDS011;3896;48.758;8.888;2023-04-25T11:11:40;2.80;;;2.60;;
7707;SDS011;3896;48.758;8.888;2023-04-25T11:14:06;1.90;;;1.80;;
7707;SDS011;3896;48.758;8.888;2023-04-25T11:16:32;2.50;;;1.60;;
7707;SDS011;3896;48.758;8.888;2023-04-25T11:18:57;3.33;;;1.20;;
7707;SDS011;3896;48.758;8.888;2023-04-25T11:21:25;1.47;;;1.40;;
7707;SDS011;3896;48.758;8.888;2023-04-25T11:23:54;1.90;;;1.80;;
7707;SDS011;3896;48.758;8.888;2023-04-25T11:26:21;1.93;;;1.83;;
7707;SDS011;3896;48.758;8.888;2023-04-25T11:28:48;4.13;;;3.77;;
7707;SDS011;3896;48.758;8.888;2023-04-25T11:31:14;2.57;;;2.10;;
7707;SDS011;3896;48.758;8.888;2023-04-25T11:33:40;1.90;;;1.50;;
7707;SDS011;3896;48.758;8.888;2023-04-25T11:36:07;2.30;;;2.10;;
7707;SDS011;3896;48.758;8.888;2023-04-25T11:38:33;2.60;;;2.40;;
7707;SDS011;3896;48.758;8.888;2023-04-25T11:40:59;3.20;;;3.00;;
7707;SDS011;3896;48.758;8.888;2023-04-25T11:43:25;3.93;;;3.73;;
7707;SDS011;3896;48.758;8.888;2023-04-25T11:45:53;3.53;;;3.07;;
7707;SDS011;3896;48.758;8.888;2023-04-25T11:48:19;3.33;;;3.00;;
7707;SDS011;3896;48.758;8.888;2023-04-25T11:50:45;3.80;;;3.50;;
7707;SDS011;3896;48.758;8.888;2023-04-25T11:53:10;4.33;;;3.70;;
7707;SDS011;3896;48.758;8.888;2023-04-25T11:55:36;5.40;;;4.20;;
7707;SDS011;3896;48.758;8.888;2023-04-25T11:58:03;5.13;;;4.63;;
7707;SDS011;3896;48.758;8.888;2023-04-25T12:00:29;4.37;;;3.87;;
7707;SDS011;3896;48.758;8.888;2023-04-25T12:02:56;5.77;;;5.27;;
7707;SDS011;3896;48.758;8.888;2023-04-25T12:05:24;4.27;;;3.60;;
7707;SDS011;3896;48.758;8.888;2023-04-25T12:07:54;4.30;;;3.20;;
7707;SDS011;3896;48.758;8.888;2023-04-25T12:10:20;3.63;;;3.33;;
7707;SDS011;3896;48.758;8.888;2023-04-25T12:12:46;2.83;;;2.63;;
7707;SDS011;3896;48.758;8.888;2023-04-25T12:15:13;3.50;;;3.20;;
7707;SDS011;3896;48.758;8.888;2023-04-25T12:17:48;3.10;;;2.83;;
7707;SDS011;3896;48.758;8.888;2023-04-25T12:20:19;2.77;;;2.57;;
7707;SDS011;3896;48.758;8.888;2023-04-25T12:22:48;3.00;;;2.67;;
7707;SDS011;3896;48.758;8.888;2023-04-25T12:25:37;2.70;;;2.10;;
7707;SDS011;3896;48.758;8.888;2023-04-25T12:28:13;2.17;;;2.00;;
7707;SDS011;3896;48.758;8.888;2023-04-25T12:33:43;3.03;;;2.83;;
7707;SDS011;3896;48.758;8.888;2023-04-25T12:36:12;5.07;;;2.70;;
7707;SDS011;3896;48.758;8.888;2023-04-25T12:38:39;4.10;;;2.80;;
7707;SDS011;3896;48.758;8.888;2023-04-25T12:41:06;3.07;;;2.43;;
7707;SDS011;3896;48.758;8.888;2023-04-25T12:43:32;5.27;;;3.00;;
7707;SDS011;3896;48.758;8.888;2023-04-25T12:45:57;3.30;;;3.00;;
7707;SDS011;3896;48.758;8.888;2023-04-25T12:48:23;2.80;;;2.60;;
7707;SDS011;3896;48.758;8.888;2023-04-25T12:50:49;4.33;;;3.50;;
7707;SDS011;3896;48.758;8.888;2023-04-25T12:53:17;3.20;;;2.77;;
7707;SDS011;3896;48.758;8.888;2023-04-25T12:55:44;3.00;;;2.37;;
7707;SDS011;3896;48.758;8.888;2023-04-25T12:58:13;3.27;;;2.67;;
7707;SDS011;3896;48.758;8.888;2023-04-25T13:00:39;2.47;;;2.30;;
7707;SDS011;3896;48.758;8.888;2023-04-25T13:03:05;3.00;;;2.67;;
7707;SDS011;3896;48.758;8.888;2023-04-25T13:05:31;3.33;;;2.83;;
7707;SDS011;3896;48.758;8.888;2023-04-25T13:07:56;5.70;;;2.80;;
7707;SDS011;3896;48.758;8.888;2023-04-25T13:10:22;3.47;;;3.17;;
7707;SDS011;3896;48.758;8.888;2023-04-25T13:12:48;4.90;;;3.27;;
7707;SDS011;3896;48.758;8.888;2023-04-25T13:15:13;4.13;;;3.30;;
7707;SDS011;3896;48.758;8.888;2023-04-25T13:17:40;5.60;;;3.93;;
7707;SDS011;3896;48.758;8.888;2023-04-25T13:20:06;4.57;;;4.07;;
7707;SDS011;3896;48.758;8.888;2023-04-25T13:22:37;4.80;;;4.03;;
7707;SDS011;3896;48.758;8.888;2023-04-25T13:25:04;5.33;;;4.80;;
7707;SDS011;3896;48.758;8.888;2023-04-25T13:27:31;3.80;;;3.50;;
7707;SDS011;3896;48.758;8.888;2023-04-25T13:29:59;4.87;;;4.37;;
7707;SDS011;3896;48.758;8.888;2023-04-25T13:32:25;4.77;;;4.20;;
7707;SDS011;3896;48.758;8.888;2023-04-25T13:34:51;6.50;;;4.43;;
7707;SDS011;3896;48.758;8.888;2023-04-25T13:37:18;4.87;;;4.00;;
7707;SDS011;3896;48.758;8.888;2023-04-25T13:39:43;4.50;;;4.10;;
7707;SDS011;3896;48.758;8.888;2023-04-25T13:42:09;5.27;;;3.97;;
7707;SDS011;3896;48.758;8.888;2023-04-25T13:44:34;4.13;;;3.73;;
7707;SDS011;3896;48.758;8.888;2023-04-25T13:46:59;4.17;;;3.77;;
7707;SDS011;3896;48.758;8.888;2023-04-25T13:49:25;4.63;;;4.00;;
7707;SDS011;3896;48.758;8.888;2023-04-25T13:51:51;6.53;;;4.13;;
7707;SDS011;3896;48.758;8.888;2023-04-25T13:54:17;6.00;;;4.00;;
7707;SDS011;3896;48.758;8.888;2023-04-25T13:56:42;4.17;;;3.70;;
7707;SDS011;3896;48.758;8.888;2023-04-25T13:59:08;4.40;;;4.03;;
7707;SDS011;3896;48.758;8.888;2023-04-25T14:01:33;3.60;;;2.93;;
7707;SDS011;3896;48.758;8.888;2023-04-25T14:04:00;3.13;;;2.93;;
7707;SDS011;3896;48.758;8.888;2023-04-25T14:06:26;3.60;;;3.20;;
7707;SDS011;3896;48.758;8.888;2023-04-25T14:08:52;3.43;;;3.13;;
7707;SDS011;3896;48.758;8.888;2023-04-25T14:11:19;3.13;;;2.93;;
7707;SDS011;3896;48.758;8.888;2023-04-25T14:13:45;3.37;;;2.63;;
7707;SDS011;3896;48.758;8.888;2023-04-25T14:16:11;3.73;;;3.10;;
7707;SDS011;3896;48.758;8.888;2023-04-25T14:18:36;3.47;;;2.47;;
7707;SDS011;3896;48.758;8.888;2023-04-25T14:21:02;3.13;;;2.53;;
7707;SDS011;3896;48.758;8.888;2023-04-25T14:23:27;2.43;;;2.20;;
7707;SDS011;3896;48.758;8.888;2023-04-25T14:25:53;2.40;;;2.20;;
7707;SDS011;3896;48.758;8.888;2023-04-25T14:28:19;2.83;;;2.43;;
7707;SDS011;3896;48.758;8.888;2023-04-25T14:30:45;2.10;;;2.00;;
7707;SDS011;3896;48.758;8.888;2023-04-25T14:33:10;2.30;;;2.10;;
7707;SDS011;3896;48.758;8.888;2023-04-25T14:35:36;2.23;;;2.10;;
7707;SDS011;3896;48.758;8.888;2023-04-25T14:38:02;2.43;;;1.73;;
7707;SDS011;3896;48.758;8.888;2023-04-25T14:40:28;2.63;;;1.80;;
7707;SDS011;3896;48.758;8.888;2023-04-25T14:42:53;1.50;;;1.40;;
7707;SDS011;3896;48.758;8.888;2023-04-25T14:45:19;1.83;;;1.73;;
7707;SDS011;3896;48.758;8.888;2023-04-25T14:47:45;1.60;;;1.50;;
7707;SDS011;3896;48.758;8.888;2023-04-25T14:50:10;1.40;;;1.30;;
7707;SDS011;3896;48.758;8.888;2023-04-25T14:52:36;1.80;;;1.70;;
7707;SDS011;3896;48.758;8.888;2023-04-25T14:55:02;1.90;;;1.80;;
7707;SDS011;3896;48.758;8.888;2023-04-25T14:57:31;2.77;;;2.03;;
7707;SDS011;3896;48.758;8.888;2023-04-25T14:59:57;1.40;;;1.30;;
7707;SDS011;3896;48.758;8.888;2023-04-25T15:02:23;2.13;;;1.80;;
7707;SDS011;3896;48.758;8.888;2023-04-25T15:04:49;2.07;;;1.60;;
7707;SDS011;3896;48.758;8.888;2023-04-25T15:07:15;2.00;;;1.80;;
7707;SDS011;3896;48.758;8.888;2023-04-25T15:09:40;1.63;;;1.53;;
7707;SDS011;3896;48.758;8.888;2023-04-25T15:12:06;1.50;;;1.40;;
7707;SDS011;3896;48.758;8.888;2023-04-25T15:14:32;1.80;;;1.70;;
7707;SDS011;3896;48.758;8.888;2023-04-25T15:16:59;1.73;;;1.63;;
7707;SDS011;3896;48.758;8.888;2023-04-25T15:19:25;2.30;;;2.10;;
7707;SDS011;3896;48.758;8.888;2023-04-25T15:21:50;1.83;;;1.70;;